createdAt,value
2019-03-27T00:02:16.397Z,5.90
2019-03-27T00:04:47.516Z,6.12
2019-03-27T00:07:19.142Z,5.67
2019-03-27T00:09:50.391Z,5.80
2019-03-27T00:12:21.990Z,5.87
2019-03-27T00:14:53.187Z,6.08
2019-03-27T00:17:24.300Z,6.15
2019-03-27T00:19:55.452Z,6.37
2019-03-27T00:22:26.972Z,5.87
2019-03-27T00:24:58.560Z,6.55
2019-03-27T00:27:29.696Z,6.47
2019-03-27T00:30:01.025Z,6.55
2019-03-27T00:32:34.374Z,6.47
2019-03-27T00:35:05.759Z,6.97
2019-03-27T00:37:37.342Z,6.75
2019-03-27T00:40:09.094Z,6.60
2019-03-27T00:42:40.246Z,7.00
2019-03-27T00:45:25.472Z,7.12
2019-03-27T00:47:48.043Z,6.95
2019-03-27T00:50:20.671Z,7.53
2019-03-27T00:52:52.336Z,7.47
2019-03-27T00:55:23.755Z,7.80
2019-03-27T00:57:56.220Z,7.62
2019-03-27T01:00:31.389Z,8.10
2019-03-27T01:03:03.495Z,7.80
2019-03-27T01:05:36.325Z,8.30
2019-03-27T01:08:07.427Z,7.83
2019-03-27T01:10:40.519Z,8.45
2019-03-27T01:13:11.706Z,8.13
2019-03-27T01:15:42.729Z,7.87
2019-03-27T01:18:13.856Z,8.07
2019-03-27T01:20:45.135Z,7.70
2019-03-27T01:23:16.308Z,7.92
2019-03-27T01:25:47.658Z,7.70
2019-03-27T01:28:19.894Z,8.10
2019-03-27T01:30:51.085Z,7.87
2019-03-27T01:33:24.826Z,8.53
2019-03-27T01:35:56.370Z,11.57
2019-03-27T01:38:28.867Z,8.13
2019-03-27T01:41:01.894Z,7.75
2019-03-27T01:43:43.952Z,7.85
2019-03-27T01:46:15.130Z,7.75
2019-03-27T01:48:46.287Z,8.70
2019-03-27T01:51:17.406Z,8.58
2019-03-27T01:53:48.654Z,9.23
2019-03-27T01:56:19.730Z,8.98
2019-03-27T01:58:50.848Z,8.95
2019-03-27T02:01:22.412Z,9.03
2019-03-27T02:03:54.725Z,9.13
2019-03-27T02:06:26.331Z,9.60
2019-03-27T02:08:57.891Z,9.80
2019-03-27T02:11:28.939Z,10.72
2019-03-27T02:14:00.419Z,10.40
2019-03-27T02:16:32.810Z,10.48
2019-03-27T02:19:05.472Z,10.25
2019-03-27T02:21:36.619Z,10.32
2019-03-27T02:24:08.381Z,10.18
2019-03-27T02:26:43.338Z,10.82
2019-03-27T02:29:13.692Z,11.28
2019-03-27T02:31:47.616Z,10.78
2019-03-27T02:34:18.995Z,10.95
2019-03-27T02:36:50.434Z,11.20
2019-03-27T02:39:21.921Z,11.22
2019-03-27T02:41:53.873Z,11.00
2019-03-27T02:44:25.360Z,11.20
2019-03-27T02:46:56.900Z,11.78
2019-03-27T02:49:28.367Z,12.05
2019-03-27T02:52:00.926Z,12.98
2019-03-27T02:54:32.318Z,12.78
2019-03-27T02:57:03.592Z,12.70
2019-03-27T02:59:37.245Z,12.90
2019-03-27T03:02:08.339Z,13.05
2019-03-27T03:04:41.895Z,12.93
2019-03-27T03:07:13.383Z,13.08
2019-03-27T03:09:45.371Z,13.65
2019-03-27T03:12:17.800Z,13.95
2019-03-27T03:14:48.941Z,14.28
2019-03-27T03:17:20.116Z,14.70
2019-03-27T03:19:51.083Z,15.60
2019-03-27T03:22:22.629Z,15.75
2019-03-27T03:24:54.036Z,16.00
2019-03-27T03:27:25.579Z,16.30
2019-03-27T03:29:56.744Z,16.37
2019-03-27T03:32:27.924Z,16.27
2019-03-27T03:35:01.478Z,17.05
2019-03-27T03:37:32.756Z,17.77
2019-03-27T03:40:04.837Z,18.23
2019-03-27T03:42:36.951Z,18.23
2019-03-27T03:45:09.328Z,17.40
2019-03-27T03:47:40.524Z,18.37
2019-03-27T03:50:26.777Z,18.05
2019-03-27T03:52:57.922Z,19.65
2019-03-27T03:55:29.454Z,18.92
2019-03-27T03:58:02.238Z,19.13
2019-03-27T04:00:37.242Z,20.30
2019-03-27T04:03:08.791Z,19.98
2019-03-27T04:05:39.795Z,19.70
2019-03-27T04:08:11.562Z,20.13
2019-03-27T04:10:42.742Z,20.17
2019-03-27T04:13:13.948Z,21.12
2019-03-27T04:15:46.099Z,20.63
2019-03-27T04:18:17.662Z,18.60
2019-03-27T04:20:49.229Z,19.77
2019-03-27T04:23:20.295Z,20.07
2019-03-27T04:26:09.197Z,19.47
2019-03-27T04:28:24.287Z,19.30
2019-03-27T04:30:55.662Z,19.02
2019-03-27T04:33:27.348Z,19.65
2019-03-27T04:35:58.384Z,18.95
2019-03-27T04:38:29.487Z,17.98
2019-03-27T04:41:01.362Z,19.37
2019-03-27T04:43:32.810Z,19.10
2019-03-27T04:46:04.172Z,19.03
2019-03-27T04:48:35.866Z,19.37
2019-03-27T04:51:07.078Z,19.98
2019-03-27T04:53:39.220Z,20.37
2019-03-27T04:56:11.191Z,19.83
2019-03-27T04:58:42.366Z,19.30
2019-03-27T05:01:13.866Z,19.85
2019-03-27T05:03:45.051Z,19.67
2019-03-27T05:06:18.820Z,18.82
2019-03-27T05:08:50.030Z,19.10
2019-03-27T05:11:21.162Z,18.20
2019-03-27T05:13:52.278Z,18.10
2019-03-27T05:16:23.529Z,19.65
2019-03-27T05:18:54.741Z,17.87
2019-03-27T05:21:25.955Z,18.05
2019-03-27T05:23:57.249Z,17.97
2019-03-27T05:26:28.985Z,18.90
2019-03-27T05:29:00.148Z,18.30
2019-03-27T05:31:31.289Z,19.10
2019-03-27T05:34:02.415Z,19.90
2019-03-27T05:36:33.953Z,19.40
2019-03-27T05:39:09.407Z,19.50
2019-03-27T05:41:40.911Z,19.07
2019-03-27T05:44:12.071Z,20.00
2019-03-27T05:46:43.410Z,20.52
2019-03-27T05:49:14.716Z,20.57
2019-03-27T05:51:45.890Z,19.83
2019-03-27T05:54:17.159Z,19.97
2019-03-27T05:56:48.296Z,20.62
2019-03-27T05:59:19.415Z,21.68
2019-03-27T06:01:51.002Z,20.27
2019-03-27T06:04:22.384Z,20.35
2019-03-27T06:06:53.442Z,19.53
2019-03-27T06:09:24.684Z,20.77
2019-03-27T06:11:56.913Z,19.92
2019-03-27T06:14:29.450Z,20.12
2019-03-27T06:17:01.400Z,20.17
2019-03-27T06:19:32.493Z,20.62
2019-03-27T06:22:03.679Z,19.30
2019-03-27T06:24:35.231Z,20.08
2019-03-27T06:27:06.745Z,20.90
2019-03-27T06:29:38.025Z,19.37
2019-03-27T06:32:09.798Z,20.05
2019-03-27T06:34:41.096Z,21.25
2019-03-27T06:37:12.766Z,20.20
2019-03-27T06:39:44.373Z,19.23
2019-03-27T06:42:15.579Z,18.85
2019-03-27T06:44:47.023Z,19.03
2019-03-27T06:47:20.661Z,19.27
2019-03-27T06:49:52.072Z,20.43
2019-03-27T06:52:37.966Z,19.50
2019-03-27T06:55:23.164Z,18.67
2019-03-27T06:57:55.362Z,18.25
2019-03-27T07:00:37.235Z,18.73
2019-03-27T07:03:09.779Z,18.87
2019-03-27T07:05:40.936Z,25.02
2019-03-27T07:08:12.437Z,19.60
2019-03-27T07:10:44.385Z,18.27
2019-03-27T07:13:40.123Z,18.45
2019-03-27T07:16:29.502Z,18.35
2019-03-27T07:19:07.634Z,18.45
2019-03-27T07:21:40.613Z,18.35
2019-03-27T07:24:12.101Z,18.70
2019-03-27T07:26:43.336Z,18.98
2019-03-27T07:29:14.862Z,17.97
2019-03-27T07:31:47.835Z,18.15
2019-03-27T07:34:19.067Z,17.90
2019-03-27T07:36:51.182Z,17.55
2019-03-27T07:39:23.269Z,17.55
2019-03-27T07:41:54.484Z,17.02
2019-03-27T07:44:25.677Z,17.75
2019-03-27T07:46:57.206Z,17.48
2019-03-27T07:49:28.659Z,17.52
2019-03-27T07:52:02.130Z,17.07
2019-03-27T07:54:33.382Z,17.65
2019-03-27T07:57:04.554Z,17.87
2019-03-27T07:59:35.893Z,17.43
2019-03-27T08:02:06.886Z,17.37
2019-03-27T08:05:27.066Z,17.60
2019-03-27T08:07:59.428Z,16.43
2019-03-27T08:10:30.567Z,16.55
2019-03-27T08:13:01.682Z,17.25
2019-03-27T08:15:32.885Z,17.27
2019-03-27T08:18:04.950Z,20.27
2019-03-27T08:20:37.091Z,17.23
2019-03-27T08:23:10.271Z,16.70
2019-03-27T08:25:41.531Z,16.42
2019-03-27T08:28:12.668Z,17.90
2019-03-27T08:30:54.189Z,17.92
2019-03-27T08:33:29.711Z,18.30
2019-03-27T08:36:01.023Z,18.05
2019-03-27T08:38:39.917Z,17.15
2019-03-27T08:41:11.914Z,16.95
2019-03-27T08:43:43.354Z,17.02
2019-03-27T08:46:22.661Z,17.10
2019-03-27T08:48:55.486Z,17.23
2019-03-27T08:51:38.655Z,17.20
2019-03-27T08:54:20.416Z,17.40
2019-03-27T08:56:52.215Z,16.85
2019-03-27T08:59:23.912Z,16.07
2019-03-27T09:02:07.523Z,16.77
2019-03-27T09:04:41.936Z,24.65
2019-03-27T09:07:18.764Z,15.83
2019-03-27T09:09:51.583Z,15.68
2019-03-27T09:12:26.736Z,15.50
2019-03-27T09:15:01.846Z,15.90
2019-03-27T09:17:33.396Z,15.90
2019-03-27T09:20:11.659Z,15.72
2019-03-27T09:22:43.351Z,16.10
2019-03-27T09:25:23.860Z,15.03
2019-03-27T09:27:56.486Z,16.25
2019-03-27T09:30:28.050Z,15.05
2019-03-27T09:32:59.699Z,14.75
2019-03-27T09:35:31.586Z,14.70
2019-03-27T09:38:03.261Z,16.00
2019-03-27T09:40:34.445Z,15.58
2019-03-27T09:43:06.675Z,14.98
2019-03-27T09:45:38.267Z,15.00
2019-03-27T09:48:09.710Z,14.13
2019-03-27T09:50:42.397Z,15.23
2019-03-27T09:57:32.704Z,15.30
2019-03-27T10:00:04.767Z,15.75
2019-03-27T10:02:36.283Z,15.80
2019-03-27T10:05:08.499Z,16.27
2019-03-27T10:07:39.768Z,14.38
2019-03-27T10:10:11.429Z,14.93
2019-03-27T10:12:43.019Z,15.23
2019-03-27T10:15:14.432Z,15.25
2019-03-27T10:17:46.493Z,14.68
2019-03-27T10:20:17.681Z,14.60
2019-03-27T10:22:49.633Z,13.68
2019-03-27T10:25:20.855Z,15.13
2019-03-27T10:27:57.740Z,14.78
2019-03-27T10:30:28.911Z,27.20
2019-03-27T10:33:00.430Z,14.03
2019-03-27T10:35:31.773Z,13.83
2019-03-27T10:38:02.969Z,14.05
2019-03-27T10:40:35.006Z,13.48
2019-03-27T10:43:06.948Z,12.63
2019-03-27T10:45:39.320Z,13.65
2019-03-27T10:48:10.858Z,12.80
2019-03-27T10:50:45.372Z,13.13
2019-03-27T10:53:22.241Z,13.40
2019-03-27T10:56:22.462Z,13.48
2019-03-27T10:59:00.625Z,14.00
2019-03-27T11:01:31.909Z,15.37
2019-03-27T11:04:03.544Z,16.47
2019-03-27T11:06:35.279Z,14.87
2019-03-27T11:09:09.534Z,15.93
2019-03-27T11:11:40.798Z,16.07
2019-03-27T11:14:20.044Z,15.60
2019-03-27T11:16:51.605Z,15.72
2019-03-27T11:19:23.176Z,15.88
2019-03-27T11:21:54.385Z,16.42
2019-03-27T11:24:25.877Z,15.23
2019-03-27T11:26:58.373Z,15.57
2019-03-27T11:29:29.977Z,18.17
2019-03-27T11:32:20.776Z,17.12
2019-03-27T11:35:21.959Z,17.20
2019-03-27T11:37:55.477Z,16.67
2019-03-27T11:40:33.988Z,17.03
2019-03-27T11:43:34.176Z,17.10
2019-03-27T11:46:06.630Z,18.50
2019-03-27T11:48:38.366Z,18.15
2019-03-27T11:51:10.332Z,18.55
2019-03-27T11:54:23.467Z,17.82
2019-03-27T11:56:56.693Z,18.15
2019-03-27T11:59:28.454Z,18.35
2019-03-27T12:02:02.686Z,19.05
2019-03-27T12:04:48.985Z,19.55
2019-03-27T12:07:40.538Z,19.53
2019-03-27T12:10:25.172Z,19.20
2019-03-27T12:12:57.542Z,19.27
2019-03-27T12:15:42.474Z,19.10
2019-03-27T12:18:15.779Z,19.60
2019-03-27T12:20:58.337Z,19.23
2019-03-27T12:23:20.175Z,20.60
2019-03-27T12:25:54.952Z,19.48
2019-03-27T12:28:25.269Z,19.67
2019-03-27T12:31:00.867Z,19.37
2019-03-27T12:33:38.432Z,18.70
2019-03-27T12:36:11.793Z,18.97
2019-03-27T12:38:42.991Z,20.05
2019-03-27T12:41:14.384Z,19.50
2019-03-27T12:43:45.971Z,18.52
2019-03-27T12:46:17.552Z,18.75
2019-03-27T12:48:48.998Z,18.70
2019-03-27T12:51:20.157Z,20.00
2019-03-27T12:53:53.456Z,18.37
2019-03-27T12:56:24.819Z,18.50
2019-03-27T12:58:56.142Z,18.12
2019-03-27T13:01:27.771Z,17.85
2019-03-27T13:03:59.316Z,19.23
2019-03-27T13:06:30.403Z,18.03
2019-03-27T13:09:02.458Z,17.40
2019-03-27T13:11:36.888Z,17.20
2019-03-27T13:14:08.305Z,17.70
2019-03-27T13:16:39.588Z,16.42
2019-03-27T13:19:11.004Z,17.85
2019-03-27T13:21:42.306Z,16.48
2019-03-27T13:24:15.375Z,18.33
2019-03-27T13:26:47.150Z,17.98
2019-03-27T13:29:18.643Z,16.73
2019-03-27T13:31:49.847Z,16.62
2019-03-27T13:34:21.505Z,16.97
2019-03-27T13:36:53.760Z,18.75
2019-03-27T13:39:25.282Z,17.12
2019-03-27T13:41:57.696Z,17.17
2019-03-27T13:44:36.912Z,17.67
2019-03-27T13:47:02.207Z,16.73
2019-03-27T13:49:34.075Z,16.90
2019-03-27T13:52:06.020Z,17.10
2019-03-27T13:54:37.057Z,16.82
2019-03-27T13:57:08.639Z,17.17
2019-03-27T13:59:39.902Z,16.37
2019-03-27T14:02:11.010Z,17.40
2019-03-27T14:04:42.051Z,16.90
2019-03-27T14:07:13.241Z,16.57
2019-03-27T14:09:47.024Z,21.95
2019-03-27T14:12:18.361Z,18.07
2019-03-27T14:14:50.718Z,16.15
2019-03-27T14:17:29.195Z,16.27
2019-03-27T14:20:02.659Z,16.80
2019-03-27T14:22:34.553Z,16.80
2019-03-27T14:25:11.029Z,16.23
2019-03-27T14:27:45.323Z,20.23
2019-03-27T14:30:18.143Z,17.82
2019-03-27T14:32:54.366Z,18.00
2019-03-27T14:35:29.414Z,18.55
2019-03-27T14:38:00.829Z,17.07
2019-03-27T14:40:35.825Z,17.92
2019-03-27T14:43:07.815Z,17.35
2019-03-27T14:45:39.028Z,17.27
2019-03-27T14:48:24.833Z,17.37
2019-03-27T14:50:56.466Z,17.60
2019-03-27T14:53:27.945Z,16.87
2019-03-27T14:55:59.559Z,16.97
2019-03-27T14:58:30.660Z,17.07
2019-03-27T15:01:02.408Z,17.20
2019-03-27T15:03:33.953Z,18.35
2019-03-27T15:06:05.157Z,17.85
2019-03-27T15:08:36.260Z,17.25
2019-03-27T15:11:10.842Z,17.62
2019-03-27T15:13:42.738Z,22.62
2019-03-27T15:16:15.846Z,23.12
2019-03-27T15:18:47.415Z,19.93
2019-03-27T15:21:21.006Z,18.73
2019-03-27T15:23:52.192Z,18.20
2019-03-27T15:26:26.439Z,20.05
2019-03-27T15:28:57.940Z,18.90
2019-03-27T15:31:29.518Z,18.65
2019-03-27T15:34:01.018Z,18.32
2019-03-27T15:36:32.576Z,17.85
2019-03-27T15:39:05.196Z,17.90
2019-03-27T15:41:37.776Z,17.10
2019-03-27T15:44:09.919Z,18.00
2019-03-27T15:46:43.344Z,17.65
2019-03-27T15:49:14.308Z,18.55
2019-03-27T15:51:48.163Z,17.45
2019-03-27T15:54:20.027Z,18.02
2019-03-27T15:56:56.263Z,18.17
2019-03-27T15:59:27.958Z,17.52
2019-03-27T16:01:59.121Z,17.42
2019-03-27T16:04:32.374Z,18.07
2019-03-27T16:07:04.434Z,18.27
2019-03-27T16:09:35.464Z,17.35
2019-03-27T16:12:07.970Z,18.23
2019-03-27T16:14:39.213Z,17.90
2019-03-27T16:17:13.612Z,17.48
2019-03-27T16:19:44.473Z,17.25
2019-03-27T16:22:16.053Z,17.82
2019-03-27T16:24:47.774Z,17.27
2019-03-27T16:27:19.222Z,18.48
2019-03-27T16:29:50.578Z,17.20
2019-03-27T16:32:22.398Z,16.17
2019-03-27T16:34:53.774Z,17.52
2019-03-27T16:37:25.133Z,17.90
2019-03-27T16:39:58.285Z,19.37
2019-03-27T16:42:29.806Z,16.55
2019-03-27T16:45:01.037Z,17.25
2019-03-27T16:47:34.200Z,18.50
2019-03-27T16:50:09.687Z,18.25
2019-03-27T16:52:40.890Z,17.52
2019-03-27T16:55:12.492Z,17.50
2019-03-27T16:57:43.649Z,17.75
2019-03-27T17:00:15.836Z,19.52
2019-03-27T17:02:47.178Z,19.12
2019-03-27T17:05:21.828Z,18.53
2019-03-27T17:07:54.016Z,18.27
2019-03-27T17:10:25.796Z,19.67
2019-03-27T17:12:57.051Z,18.98
2019-03-27T17:15:28.642Z,18.30
2019-03-27T17:18:03.338Z,18.00
2019-03-27T17:20:35.059Z,20.82
2019-03-27T17:23:17.387Z,17.62
2019-03-27T17:25:40.414Z,21.15
2019-03-27T17:28:12.943Z,15.67
2019-03-27T17:30:44.298Z,16.95
2019-03-27T17:33:15.876Z,16.15
2019-03-27T17:35:50.301Z,17.07
2019-03-27T17:38:36.013Z,16.07
2019-03-27T17:41:16.537Z,17.30
2019-03-27T17:43:58.691Z,17.07
2019-03-27T17:46:31.262Z,17.50
2019-03-27T17:49:02.908Z,17.23
2019-03-27T17:51:34.060Z,17.12
2019-03-27T17:54:05.418Z,16.55
2019-03-27T17:56:37.130Z,16.80
2019-03-27T17:59:08.252Z,19.82
2019-03-27T18:01:40.838Z,17.87
2019-03-27T18:04:12.680Z,17.12
2019-03-27T18:06:44.180Z,16.73
2019-03-27T18:09:15.607Z,18.98
2019-03-27T18:11:46.798Z,17.77
2019-03-27T18:14:19.870Z,17.65
2019-03-27T18:16:52.788Z,17.95
2019-03-27T18:19:24.131Z,17.82
2019-03-27T18:22:07.071Z,17.45
2019-03-27T18:24:28.567Z,18.17
2019-03-27T18:27:00.186Z,19.30
2019-03-27T18:29:31.861Z,18.00
2019-03-27T18:32:03.076Z,18.15
2019-03-27T18:34:37.137Z,18.00
2019-03-27T18:37:08.490Z,19.45
2019-03-27T18:39:39.967Z,17.60
2019-03-27T18:42:11.398Z,19.15
2019-03-27T18:44:44.495Z,18.65
2019-03-27T18:47:16.962Z,19.42
2019-03-27T18:49:48.196Z,21.30
2019-03-27T18:52:19.816Z,21.60
2019-03-27T18:54:51.504Z,19.57
2019-03-27T18:57:25.999Z,18.40
2019-03-27T18:59:57.233Z,18.25
2019-03-27T19:02:29.027Z,18.87
2019-03-27T19:05:01.256Z,18.87
2019-03-27T19:07:32.418Z,18.90
2019-03-27T19:10:06.267Z,19.52
2019-03-27T19:12:44.108Z,20.13
2019-03-27T19:15:33.835Z,20.80
2019-03-27T19:18:06.303Z,21.90
2019-03-27T19:20:38.204Z,20.32
2019-03-27T19:23:10.077Z,20.75
2019-03-27T19:25:42.481Z,21.05
2019-03-27T19:28:13.763Z,19.10
2019-03-27T19:30:45.297Z,21.12
2019-03-27T19:33:16.810Z,22.82
2019-03-27T19:35:48.030Z,24.97
2019-03-27T19:38:19.612Z,20.43
2019-03-27T19:40:51.096Z,21.02
2019-03-27T19:43:22.330Z,19.57
2019-03-27T19:45:53.848Z,19.93
2019-03-27T19:48:25.545Z,24.92
2019-03-27T19:50:59.052Z,21.77
2019-03-27T19:53:30.819Z,21.73
2019-03-27T19:56:01.983Z,22.52
2019-03-27T19:58:33.111Z,22.20
2019-03-27T20:01:04.657Z,22.13
2019-03-27T20:03:35.994Z,21.00
2019-03-27T20:06:07.314Z,22.35
2019-03-27T20:08:38.583Z,21.52
2019-03-27T20:11:10.501Z,23.18
2019-03-27T20:13:42.289Z,21.45
2019-03-27T20:16:14.138Z,21.97
2019-03-27T20:18:45.386Z,21.62
2019-03-27T20:21:17.796Z,21.60
2019-03-27T20:23:49.437Z,21.45
2019-03-27T20:26:20.854Z,21.80
2019-03-27T20:28:52.662Z,21.73
2019-03-27T20:31:24.447Z,21.50
2019-03-27T20:33:55.583Z,21.62
2019-03-27T20:36:27.723Z,21.45
2019-03-27T20:38:59.816Z,21.48
2019-03-27T20:41:32.156Z,22.22
2019-03-27T20:44:06.470Z,21.77
2019-03-27T20:46:38.038Z,21.33
2019-03-27T20:49:09.241Z,21.63
2019-03-27T20:51:40.560Z,21.37
2019-03-27T20:54:11.661Z,21.82
2019-03-27T20:56:44.960Z,22.52
2019-03-27T20:59:18.481Z,21.95
2019-03-27T21:01:49.924Z,21.33
2019-03-27T21:04:21.771Z,22.07
2019-03-27T21:06:53.006Z,21.00
2019-03-27T21:09:24.540Z,22.07
2019-03-27T21:11:56.272Z,21.70
2019-03-27T21:14:27.586Z,22.90
2019-03-27T21:16:58.840Z,20.85
2019-03-27T21:19:31.216Z,21.93
2019-03-27T21:22:02.976Z,21.52
2019-03-27T21:24:34.703Z,22.05
2019-03-27T21:27:06.092Z,22.22
2019-03-27T21:29:37.275Z,21.57
2019-03-27T21:32:08.441Z,22.22
2019-03-27T21:34:40.114Z,21.42
2019-03-27T21:37:11.830Z,21.60
2019-03-27T21:39:54.710Z,22.07
2019-03-27T21:42:35.539Z,20.88
2019-03-27T21:45:08.762Z,21.65
2019-03-27T21:47:40.263Z,21.75
2019-03-27T21:50:12.510Z,21.42
2019-03-27T21:52:59.577Z,21.77
2019-03-27T21:55:22.822Z,21.47
2019-03-27T21:57:52.821Z,21.68
2019-03-27T22:00:40.434Z,21.23
2019-03-27T22:03:11.818Z,22.90
2019-03-27T22:05:43.617Z,22.13
2019-03-27T22:08:19.189Z,22.22
2019-03-27T22:10:50.380Z,22.15
2019-03-27T22:13:21.818Z,28.60
2019-03-27T22:15:53.070Z,23.22
2019-03-27T22:18:24.307Z,21.37
2019-03-27T22:20:55.446Z,21.00
2019-03-27T22:23:26.827Z,21.65
2019-03-27T22:25:58.263Z,21.65
2019-03-27T22:28:29.727Z,22.60
2019-03-27T22:31:01.144Z,21.95
2019-03-27T22:33:32.864Z,23.02
2019-03-27T22:36:05.275Z,22.15
2019-03-27T22:38:36.647Z,22.52
2019-03-27T22:41:07.804Z,22.90
2019-03-27T22:43:39.629Z,23.45
2019-03-27T22:46:10.870Z,22.22
2019-03-27T22:48:43.049Z,22.30
2019-03-27T22:51:14.810Z,22.42
2019-03-27T22:53:46.374Z,22.75
2019-03-27T22:56:18.143Z,22.77
2019-03-27T22:58:49.831Z,22.10
2019-03-27T23:01:20.848Z,22.37
2019-03-27T23:03:52.256Z,22.20
2019-03-27T23:06:24.142Z,22.63
2019-03-27T23:08:55.904Z,22.45
2019-03-27T23:11:27.703Z,22.13
2019-03-27T23:14:00.384Z,22.00
2019-03-27T23:16:33.800Z,22.22
2019-03-27T23:19:09.243Z,21.52
2019-03-27T23:21:41.201Z,22.87
2019-03-27T23:24:12.306Z,21.40
2019-03-27T23:26:43.548Z,23.07
2019-03-27T23:29:21.461Z,22.53
2019-03-27T23:31:56.193Z,21.40
2019-03-27T23:34:30.669Z,21.70
2019-03-27T23:37:02.227Z,22.35
2019-03-27T23:39:33.680Z,22.53
2019-03-27T23:42:04.867Z,22.75
2019-03-27T23:44:36.019Z,22.98
2019-03-27T23:47:07.204Z,22.17
2019-03-27T23:49:39.336Z,21.97
2019-03-27T23:52:13.434Z,21.77
2019-03-27T23:54:49.574Z,22.67
2019-03-27T23:57:21.407Z,22.00
2019-03-27T23:59:55.251Z,22.42
